Time;durP1;ratioP1;P1;durP2;ratioP2;P2;SDS_P1;SDS_P2;PMS_P1;PMS_P2;Temp;Humidity;BMP_temperature;BMP_pressure;BME280_temperature;BME280_humidity;BME280_pressure;Samples;Min_cycle;Max_cycle;Signal;HPM_P1;HPM_P2
2023/01/30 00:00:27;;;;;;;24.03;21.53;;;7.00;99.90;;;;;;5015660;28;20045;-84
2023/01/30 00:02:53;;;;;;;26.13;23.40;;;6.90;99.90;;;;;;5018662;28;20044;-84
2023/01/30 00:05:19;;;;;;;26.43;21.37;;;6.90;99.90;;;;;;5030738;28;20466;-84
2023/01/30 00:07:46;;;;;;;26.43;22.13;;;6.90;99.90;;;;;;5010832;28;20030;-84
2023/01/30 00:10:12;;;;;;;24.90;22.13;;;7.00;99.90;;;;;;5005272;28;20037;-83
2023/01/30 00:12:38;;;;;;;25.50;22.20;;;7.00;99.90;;;;;;5011174;28;20046;-84
2023/01/30 00:15:05;;;;;;;23.23;20.73;;;7.00;99.90;;;;;;5024128;28;20025;-84
2023/01/30 00:17:31;;;;;;;25.30;21.13;;;7.00;99.90;;;;;;4996601;28;20037;-84
2023/01/30 00:19:57;;;;;;;24.30;21.80;;;6.90;99.90;;;;;;5024190;28;20406;-84
2023/01/30 00:22:23;;;;;;;27.63;20.73;;;7.00;99.90;;;;;;5033589;28;20414;-84
2023/01/30 00:24:49;;;;;;;24.10;21.57;;;7.00;99.90;;;;;;5015732;28;20038;-84
2023/01/30 00:27:16;;;;;;;24.30;21.80;;;7.00;99.90;;;;;;5014680;28;20040;-84
2023/01/30 00:29:42;;;;;;;25.60;21.97;;;7.10;99.90;;;;;;5016051;28;20041;-84
2023/01/30 00:32:08;;;;;;;25.17;21.63;;;7.00;99.90;;;;;;5014754;28;20410;-84
2023/01/30 00:34:34;;;;;;;25.43;21.30;;;7.00;99.90;;;;;;5015050;28;20030;-84
2023/01/30 00:37:00;;;;;;;24.07;21.20;;;7.00;99.90;;;;;;5015179;28;20033;-84
2023/01/30 00:39:26;;;;;;;24.27;21.33;;;7.00;99.90;;;;;;5012029;28;20045;-84
2023/01/30 00:47:21;;;;;;;22.33;19.93;;;7.00;99.90;;;;;;5029111;28;20076;-83
2023/01/30 00:49:47;;;;;;;23.63;20.30;;;6.90;99.90;;;;;;4996418;28;20030;-84
2023/01/30 00:52:13;;;;;;;23.70;21.10;;;6.90;99.90;;;;;;5004554;28;20048;-84
2023/01/30 00:54:40;;;;;;;22.13;19.87;;;7.00;99.90;;;;;;4994779;28;20475;-84
2023/01/30 00:57:06;;;;;;;23.07;20.53;;;7.00;99.90;;;;;;5021006;28;20041;-84
2023/01/30 00:59:32;;;;;;;25.03;20.53;;;7.00;99.90;;;;;;5012934;28;20046;-84
2023/01/30 01:01:58;;;;;;;22.33;20.03;;;7.00;99.90;;;;;;4995457;28;20030;-84
2023/01/30 01:04:24;;;;;;;22.90;20.50;;;7.10;99.90;;;;;;5013015;28;20049;-84
2023/01/30 01:06:50;;;;;;;29.33;20.60;;;7.10;99.90;;;;;;5008823;28;20025;-84
2023/01/30 01:09:16;;;;;;;24.27;19.43;;;7.10;99.90;;;;;;5014066;28;20022;-84
2023/01/30 01:11:42;;;;;;;24.00;20.23;;;7.10;99.90;;;;;;5028417;28;20048;-84
2023/01/30 01:14:08;;;;;;;25.10;21.17;;;7.00;99.90;;;;;;5014853;28;20033;-83
2023/01/30 01:16:35;;;;;;;22.60;20.13;;;7.00;99.90;;;;;;5009667;28;20053;-84
2023/01/30 01:19:01;;;;;;;22.77;20.37;;;6.90;99.90;;;;;;4995363;28;20026;-84
2023/01/30 01:21:27;;;;;;;22.97;20.67;;;6.90;99.90;;;;;;4991648;28;20030;-84
2023/01/30 01:23:57;;;;;;;24.00;21.47;;;6.90;99.90;;;;;;5014263;28;20033;-84
2023/01/30 01:26:23;;;;;;;22.83;20.52;;;7.00;99.90;;;;;;5030477;28;20029;-84
2023/01/30 01:28:53;;;;;;;22.87;20.57;;;7.10;99.90;;;;;;5015050;28;20414;-84
2023/01/30 01:31:19;;;;;;;23.33;20.83;;;7.10;99.90;;;;;;5012057;28;20037;-84
2023/01/30 01:33:46;;;;;;;22.27;19.97;;;7.10;99.90;;;;;;5032153;28;20024;-84
2023/01/30 01:36:12;;;;;;;23.20;20.93;;;7.10;99.90;;;;;;5014017;28;20038;-84
2023/01/30 01:38:40;;;;;;;25.43;20.80;;;7.00;99.90;;;;;;5024229;28;20036;-84
2023/01/30 01:41:06;;;;;;;23.30;20.90;;;7.00;99.90;;;;;;5025811;28;20043;-84
2023/01/30 01:43:34;;;;;;;23.67;21.10;;;7.00;99.90;;;;;;5013299;28;20041;-84
2023/01/30 01:46:17;;;;;;;23.27;20.87;;;7.00;99.90;;;;;;4996723;28;20038;-84
2023/01/30 01:48:48;;;;;;;23.10;20.73;;;6.90;99.90;;;;;;4995230;28;20018;-84
2023/01/30 01:51:37;;;;;;;22.83;20.58;;;6.90;99.90;;;;;;4996084;28;20030;-84
2023/01/30 01:54:24;;;;;;;23.10;20.63;;;6.90;99.90;;;;;;5007452;28;20375;-84
2023/01/30 01:56:50;;;;;;;22.63;20.23;;;7.00;99.90;;;;;;5014062;28;20363;-83
2023/01/30 01:59:29;;;;;;;23.93;21.30;;;6.80;99.90;;;;;;5014201;28;20037;-84
2023/01/30 02:01:58;;;;;;;23.83;21.07;;;6.80;99.90;;;;;;5014341;28;20034;-84
2023/01/30 02:07:09;;;;;;;24.20;21.47;;;6.80;99.90;;;;;;5018161;28;20533;-83
2023/01/30 02:09:35;;;;;;;23.87;21.37;;;6.80;99.90;;;;;;5000513;28;20029;-83
2023/01/30 02:12:02;;;;;;;22.73;20.37;;;6.90;99.90;;;;;;5013084;28;20038;-83
2023/01/30 02:14:28;;;;;;;23.77;21.27;;;6.80;99.90;;;;;;5012550;28;20045;-84
2023/01/30 02:16:55;;;;;;;22.80;20.47;;;6.80;99.90;;;;;;5007141;28;20410;-84
2023/01/30 02:19:45;;;;;;;24.13;21.53;;;6.70;99.90;;;;;;5030210;28;20037;-83
2023/01/30 02:22:26;;;;;;;22.33;20.03;;;6.70;99.90;;;;;;5034811;28;20379;-83
2023/01/30 02:25:17;;;;;;;23.40;20.45;;;6.70;99.90;;;;;;5036116;28;20036;-83
2023/01/30 02:28:02;;;;;;;24.90;21.27;;;6.70;99.90;;;;;;5004411;28;20044;-84
2023/01/30 02:30:51;;;;;;;24.83;20.93;;;6.70;99.90;;;;;;5031734;28;20029;-84
2023/01/30 02:33:40;;;;;;;22.47;20.10;;;6.70;99.90;;;;;;5019361;28;20041;-84
2023/01/30 02:36:20;;;;;;;24.90;21.13;;;6.70;99.90;;;;;;5034582;28;20041;-83
2023/01/30 02:39:07;;;;;;;23.73;21.05;;;6.70;99.90;;;;;;5008010;28;20034;-84
2023/01/30 02:41:52;;;;;;;22.83;20.37;;;6.70;99.90;;;;;;5018285;28;20053;-84
2023/01/30 02:45:11;;;;;;;23.50;21.20;;;6.70;99.90;;;;;;5026334;28;20037;-84
2023/01/30 02:47:41;;;;;;;21.97;19.67;;;6.80;99.90;;;;;;4943997;28;20035;-83
2023/01/30 02:50:14;;;;;;;23.00;20.57;;;6.70;99.90;;;;;;4921642;29;20043;-84
2023/01/30 02:52:40;;;;;;;25.33;21.07;;;6.80;99.90;;;;;;4953319;29;20027;-84
2023/01/30 02:55:19;;;;;;;23.33;20.87;;;6.80;99.90;;;;;;4938885;29;20039;-84
2023/01/30 02:57:46;;;;;;;22.70;20.33;;;6.80;99.90;;;;;;4939363;29;20043;-84
2023/01/30 03:00:12;;;;;;;23.33;20.90;;;6.80;99.90;;;;;;4950783;28;20055;-84
2023/01/30 03:03:06;;;;;;;22.97;20.63;;;6.80;99.90;;;;;;4946321;28;20039;-84
2023/01/30 03:05:35;;;;;;;22.50;20.23;;;6.90;99.90;;;;;;4932282;29;20055;-84
2023/01/30 03:08:12;;;;;;;23.30;20.60;;;6.80;99.90;;;;;;4940644;28;20058;-84
2023/01/30 03:10:46;;;;;;;22.90;19.83;;;6.80;99.90;;;;;;4950991;29;20046;-84
2023/01/30 03:13:24;;;;;;;24.27;20.63;;;6.80;99.90;;;;;;4952573;28;20047;-83
2023/01/30 03:15:54;;;;;;;23.50;20.03;;;6.80;99.90;;;;;;4943234;28;20496;-84
2023/01/30 03:18:20;;;;;;;22.83;20.52;;;6.70;99.90;;;;;;4951599;29;20023;-84
2023/01/30 03:20:46;;;;;;;23.27;20.80;;;6.80;99.90;;;;;;4948621;28;20046;-85
2023/01/30 03:23:13;;;;;;;22.83;20.43;;;6.80;99.90;;;;;;5014224;28;20342;-84
2023/01/30 03:25:39;;;;;;;22.30;20.03;;;6.80;99.90;;;;;;5015122;28;20034;-84
2023/01/30 03:28:05;;;;;;;23.93;21.43;;;6.80;99.90;;;;;;5010186;28;20386;-83
2023/01/30 03:30:31;;;;;;;23.73;20.17;;;6.80;99.90;;;;;;4986844;28;20396;-84
2023/01/30 03:32:57;;;;;;;23.47;20.80;;;6.70;99.90;;;;;;5029258;28;20038;-84
2023/01/30 03:35:24;;;;;;;23.80;20.60;;;6.70;99.90;;;;;;5032031;28;20383;-84
2023/01/30 03:37:51;;;;;;;23.37;20.97;;;6.70;99.90;;;;;;5008771;28;20036;-84
2023/01/30 03:40:17;;;;;;;24.63;21.00;;;6.70;99.90;;;;;;5013218;28;20045;-84
2023/01/30 03:42:43;;;;;;;22.60;20.07;;;6.70;99.90;;;;;;5017030;28;20471;-84
2023/01/30 03:45:09;;;;;;;24.77;21.07;;;6.80;99.90;;;;;;5015667;28;20040;-84
2023/01/30 03:47:36;;;;;;;26.33;21.83;;;6.80;99.90;;;;;;5025866;28;20033;-84
2023/01/30 03:50:02;;;;;;;22.63;20.27;;;6.70;99.90;;;;;;5006072;28;20495;-82
2023/01/30 03:52:28;;;;;;;26.83;21.90;;;6.70;99.90;;;;;;4996679;28;20045;-84
2023/01/30 03:54:54;;;;;;;24.67;21.63;;;6.70;99.90;;;;;;5013908;28;20026;-84
2023/01/30 03:57:20;;;;;;;24.67;21.93;;;6.70;99.90;;;;;;5034429;28;20033;-84
2023/01/30 03:59:46;;;;;;;24.17;21.23;;;6.70;99.90;;;;;;5031702;28;20048;-84
2023/01/30 04:02:13;;;;;;;28.30;21.77;;;6.80;99.90;;;;;;5031508;28;20038;-84
2023/01/30 04:04:39;;;;;;;24.40;21.73;;;6.80;99.90;;;;;;5016590;28;20052;-84
2023/01/30 04:07:05;;;;;;;24.00;21.47;;;6.70;99.90;;;;;;5025412;28;20029;-83
2023/01/30 04:09:31;;;;;;;24.73;21.90;;;6.70;99.90;;;;;;5007883;28;20473;-83
2023/01/30 04:11:57;;;;;;;25.83;23.03;;;6.70;99.90;;;;;;5021513;28;20029;-84
2023/01/30 04:14:24;;;;;;;25.13;22.43;;;6.70;99.90;;;;;;5015476;28;20068;-83
2023/01/30 04:16:50;;;;;;;25.17;22.57;;;6.70;99.90;;;;;;5007252;28;20034;-83
2023/01/30 04:19:16;;;;;;;28.90;23.57;;;6.60;99.90;;;;;;5000134;28;20056;-85
2023/01/30 04:21:42;;;;;;;26.73;23.87;;;6.60;99.90;;;;;;5012807;28;20049;-85
2023/01/30 04:24:08;;;;;;;26.30;23.43;;;6.70;99.90;;;;;;5015200;28;20041;-85
2023/01/30 04:26:34;;;;;;;24.70;22.20;;;6.70;99.90;;;;;;5005388;28;20037;-83
2023/01/30 04:29:00;;;;;;;26.17;22.77;;;6.60;99.90;;;;;;5015919;28;20030;-84
2023/01/30 04:31:26;;;;;;;25.30;22.53;;;6.60;99.90;;;;;;4998508;28;20049;-85
2023/01/30 04:33:52;;;;;;;25.77;23.07;;;6.60;99.90;;;;;;4996044;28;20517;-82
2023/01/30 04:36:18;;;;;;;25.73;22.63;;;6.70;99.90;;;;;;5023221;28;20090;-84
2023/01/30 04:38:44;;;;;;;25.77;22.83;;;6.70;99.90;;;;;;4995721;28;20430;-83
2023/01/30 04:41:11;;;;;;;26.00;23.30;;;6.70;99.90;;;;;;5017806;28;20042;-84
2023/01/30 04:43:37;;;;;;;28.20;23.87;;;6.70;99.90;;;;;;5008547;28;20390;-84
2023/01/30 04:46:03;;;;;;;26.30;23.60;;;6.70;99.90;;;;;;5031834;28;20042;-84
2023/01/30 04:48:29;;;;;;;26.63;23.83;;;6.70;99.90;;;;;;5035211;28;20033;-83
2023/01/30 04:50:55;;;;;;;25.77;23.07;;;6.60;99.90;;;;;;5015684;28;20471;-83
2023/01/30 04:53:22;;;;;;;25.73;22.93;;;6.60;99.90;;;;;;5011379;28;20025;-85
2023/01/30 04:55:48;;;;;;;24.93;22.37;;;6.50;99.90;;;;;;5015110;28;20041;-83
2023/01/30 04:58:15;;;;;;;27.17;24.00;;;6.40;99.90;;;;;;5028876;28;20386;-86
2023/01/30 05:00:41;;;;;;;27.47;24.57;;;6.50;99.90;;;;;;5001264;28;20046;-86
2023/01/30 05:03:07;;;;;;;29.53;23.87;;;6.40;99.90;;;;;;5005380;28;20046;-85
2023/01/30 05:05:33;;;;;;;27.33;24.27;;;6.50;99.90;;;;;;4995140;28;20046;-86
2023/01/30 05:08:00;;;;;;;26.87;24.10;;;6.50;99.90;;;;;;5030520;28;20471;-86
2023/01/30 05:10:26;;;;;;;26.10;23.37;;;6.60;99.90;;;;;;5014897;28;20056;-86
2023/01/30 05:12:52;;;;;;;26.07;23.47;;;6.60;99.90;;;;;;5032701;28;20041;-86
2023/01/30 05:15:18;;;;;;;25.90;22.93;;;6.60;99.90;;;;;;4997799;28;20037;-86
2023/01/30 05:17:44;;;;;;;36.37;22.90;;;6.60;99.90;;;;;;5015439;28;20053;-86
2023/01/30 05:20:11;;;;;;;26.00;23.27;;;6.50;99.90;;;;;;5014577;28;20033;-86
2023/01/30 05:22:37;;;;;;;26.20;23.23;;;6.50;99.90;;;;;;5014728;28;20045;-86
2023/01/30 05:25:04;;;;;;;24.57;21.23;;;6.50;99.90;;;;;;5031775;28;20040;-86
2023/01/30 05:27:30;;;;;;;24.90;22.30;;;6.50;99.90;;;;;;5031904;28;20042;-86
2023/01/30 05:29:56;;;;;;;23.77;21.43;;;6.60;99.90;;;;;;5014412;28;20056;-86
2023/01/30 05:32:22;;;;;;;23.37;20.87;;;6.60;99.90;;;;;;4997778;28;20037;-86
2023/01/30 05:34:48;;;;;;;23.80;21.23;;;6.60;99.90;;;;;;4997116;28;20038;-86
2023/01/30 05:37:14;;;;;;;22.87;20.47;;;6.60;99.90;;;;;;5015108;28;20037;-86
2023/01/30 05:39:41;;;;;;;23.43;20.67;;;6.60;99.90;;;;;;4998497;28;20034;-86
2023/01/30 05:42:07;;;;;;;22.10;20.00;;;6.50;99.90;;;;;;4994631;28;20042;-86
2023/01/30 05:44:33;;;;;;;23.60;21.20;;;6.60;99.90;;;;;;5012137;28;20467;-85
2023/01/30 05:46:59;;;;;;;22.30;20.13;;;6.50;99.90;;;;;;4978488;28;20034;-86
2023/01/30 05:49:25;;;;;;;22.93;20.53;;;6.50;99.90;;;;;;4999634;28;20363;-85
2023/01/30 05:51:51;;;;;;;22.53;20.00;;;6.50;99.90;;;;;;5014031;28;20026;-86
2023/01/30 05:54:17;;;;;;;21.77;19.63;;;6.60;99.90;;;;;;5014959;28;20060;-86
2023/01/30 05:56:43;;;;;;;23.07;20.73;;;6.60;99.90;;;;;;5013849;28;20037;-85
2023/01/30 05:59:10;;;;;;;21.93;19.63;;;6.60;99.90;;;;;;5031746;28;20053;-86
2023/01/30 06:01:36;;;;;;;21.23;19.13;;;6.60;99.90;;;;;;4994308;28;20482;-86
2023/01/30 06:04:02;;;;;;;21.27;19.07;;;6.60;99.90;;;;;;5012628;28;20046;-85
2023/01/30 06:06:28;;;;;;;57.17;20.83;;;6.60;99.90;;;;;;4995288;28;20382;-86
2023/01/30 06:08:55;;;;;;;21.27;19.17;;;6.60;99.90;;;;;;4995132;28;20529;-86
2023/01/30 06:11:21;;;;;;;21.87;19.77;;;6.60;99.90;;;;;;5011309;28;20029;-86
2023/01/30 06:13:47;;;;;;;23.73;19.40;;;6.60;99.90;;;;;;5032037;28;20044;-86
2023/01/30 06:16:14;;;;;;;42.90;33.83;;;6.60;99.90;;;;;;5012849;28;20041;-86
2023/01/30 06:18:40;;;;;;;42.37;31.60;;;6.60;99.90;;;;;;5013104;28;20033;-86
2023/01/30 06:21:06;;;;;;;31.20;27.30;;;6.60;99.90;;;;;;5014594;28;20038;-86
2023/01/30 06:23:32;;;;;;;23.90;21.57;;;6.60;99.90;;;;;;5031006;28;20036;-87
2023/01/30 06:25:58;;;;;;;22.00;19.80;;;6.60;99.90;;;;;;5014811;28;20026;-86
2023/01/30 06:28:25;;;;;;;21.93;19.70;;;6.60;99.90;;;;;;5031910;28;20029;-86
2023/01/30 06:30:51;;;;;;;22.07;19.97;;;6.60;99.90;;;;;;5030917;28;20046;-86
2023/01/30 06:33:17;;;;;;;23.03;20.70;;;6.50;99.90;;;;;;5014011;28;20467;-86
2023/01/30 06:35:43;;;;;;;23.63;20.40;;;6.50;99.90;;;;;;5012076;28;20026;-86
2023/01/30 06:38:10;;;;;;;21.07;19.07;;;6.50;99.90;;;;;;4998069;28;20041;-86
2023/01/30 06:40:37;;;;;;;21.63;19.43;;;6.40;99.90;;;;;;4995530;28;20030;-86
2023/01/30 06:43:03;;;;;;;39.13;20.40;;;6.40;99.90;;;;;;4994424;28;20030;-87
2023/01/30 06:45:29;;;;;;;20.27;18.37;;;6.40;99.90;;;;;;5006983;28;20045;-87
2023/01/30 06:47:55;;;;;;;22.13;19.93;;;6.40;99.90;;;;;;5010041;28;20037;-86
2023/01/30 06:50:26;;;;;;;20.33;18.43;;;6.40;99.90;;;;;;4995148;28;20026;-84
2023/01/30 06:52:52;;;;;;;21.02;18.63;;;6.40;99.90;;;;;;5015485;28;20042;-88
2023/01/30 06:55:19;;;;;;;21.00;18.97;;;6.40;99.90;;;;;;5014239;28;20359;-86
2023/01/30 06:57:46;;;;;;;21.27;19.23;;;6.40;99.90;;;;;;5009560;28;20038;-87
2023/01/30 07:00:14;;;;;;;21.20;19.20;;;6.30;99.90;;;;;;5020011;28;20029;-86
2023/01/30 07:02:40;;;;;;;21.73;19.53;;;6.30;99.90;;;;;;5014147;28;20037;-86
2023/01/30 07:05:07;;;;;;;20.83;18.63;;;6.30;99.90;;;;;;5016904;28;20468;-87
2023/01/30 07:07:33;;;;;;;23.17;19.17;;;6.40;99.90;;;;;;5016978;28;20046;-87
2023/01/30 07:09:59;;;;;;;21.63;19.43;;;6.40;99.90;;;;;;5016115;28;20041;-86
2023/01/30 07:12:26;;;;;;;20.93;18.87;;;6.30;99.90;;;;;;4997193;28;20049;-86
2023/01/30 07:14:52;;;;;;;21.50;19.40;;;6.40;99.90;;;;;;5008959;28;20038;-86
2023/01/30 07:17:21;;;;;;;22.53;20.23;;;6.50;99.90;;;;;;5011175;28;20037;-86
2023/01/30 07:19:48;;;;;;;22.37;20.07;;;6.50;99.90;;;;;;5017585;28;20029;-85
2023/01/30 07:22:14;;;;;;;23.10;20.77;;;6.40;99.90;;;;;;5016398;28;20045;-85
2023/01/30 07:24:41;;;;;;;23.73;21.23;;;6.30;99.90;;;;;;4995841;28;20042;-85
2023/01/30 07:27:09;;;;;;;24.13;20.17;;;6.20;99.90;;;;;;5022519;28;20060;-85
2023/01/30 07:29:35;;;;;;;22.23;19.93;;;6.10;99.90;;;;;;5015664;28;20053;-85
2023/01/30 07:32:01;;;;;;;22.53;20.10;;;6.10;99.90;;;;;;5016751;28;20038;-86
2023/01/30 07:34:28;;;;;;;24.40;21.67;;;6.10;99.90;;;;;;5016502;28;20040;-86
2023/01/30 07:36:54;;;;;;;26.37;22.00;;;6.10;99.90;;;;;;5009015;28;20045;-88
2023/01/30 07:39:20;;;;;;;23.97;21.47;;;6.10;99.90;;;;;;4997360;28;20041;-88
2023/01/30 07:41:46;;;;;;;22.60;19.97;;;6.10;99.90;;;;;;4981836;28;20053;-84
2023/01/30 07:44:12;;;;;;;23.70;21.23;;;6.10;99.90;;;;;;5001520;28;20042;-85
2023/01/30 07:46:38;;;;;;;23.87;21.13;;;6.00;99.90;;;;;;5014058;28;20033;-84
2023/01/30 07:49:05;;;;;;;29.33;21.33;;;6.00;99.90;;;;;;4998587;28;20050;-85
2023/01/30 07:51:31;;;;;;;23.60;20.13;;;6.10;99.90;;;;;;4983568;28;20041;-90
2023/01/30 07:53:57;;;;;;;27.90;22.37;;;6.00;99.90;;;;;;5016431;28;20402;-89
2023/01/30 07:56:23;;;;;;;30.53;23.53;;;6.10;99.90;;;;;;5014040;28;20056;-90
2023/01/30 07:58:49;;;;;;;24.93;22.23;;;6.10;99.90;;;;;;4996733;28;20045;-88
2023/01/30 08:01:16;;;;;;;27.13;21.87;;;6.20;99.90;;;;;;5002437;28;20037;-86
2023/01/30 08:03:44;;;;;;;25.50;22.13;;;6.20;99.90;;;;;;5012701;28;20050;-86
2023/01/30 08:06:12;;;;;;;24.60;21.87;;;6.30;99.90;;;;;;4997310;28;20030;-85
2023/01/30 08:08:39;;;;;;;24.73;22.10;;;6.30;99.90;;;;;;4996896;28;20497;-87
2023/01/30 08:11:05;;;;;;;26.57;22.17;;;6.30;99.90;;;;;;5012664;28;20038;-88
2023/01/30 08:13:31;;;;;;;29.10;23.20;;;6.30;99.90;;;;;;5012099;28;20037;-89
2023/01/30 08:16:04;;;;;;;28.33;23.80;;;6.30;99.90;;;;;;5015393;28;20041;-94
2023/01/30 08:18:31;;;;;;;29.23;23.27;;;6.30;99.90;;;;;;5014747;28;20118;-92
2023/01/30 08:21:01;;;;;;;29.40;24.20;;;6.40;99.90;;;;;;5010845;28;20054;-92
2023/01/30 08:23:27;;;;;;;24.90;22.05;;;6.50;99.90;;;;;;5015932;28;20414;-84
2023/01/30 08:25:54;;;;;;;25.50;22.27;;;6.40;99.90;;;;;;5012246;28;20038;-85
2023/01/30 08:28:21;;;;;;;26.37;21.60;;;6.40;99.90;;;;;;4996643;28;20479;-87
2023/01/30 08:30:48;;;;;;;32.83;22.60;;;6.40;99.90;;;;;;5002260;28;20045;-88
2023/01/30 08:33:14;;;;;;;34.33;22.87;;;6.30;99.90;;;;;;5022337;28;20049;-87
2023/01/30 08:35:40;;;;;;;25.60;21.57;;;6.30;99.90;;;;;;4994023;28;20045;-88
2023/01/30 08:38:07;;;;;;;24.50;22.00;;;6.30;99.90;;;;;;4999018;28;20487;-87
2023/01/30 08:40:34;;;;;;;22.77;20.37;;;6.40;99.90;;;;;;5008690;28;20046;-87
2023/01/30 08:43:00;;;;;;;24.87;21.87;;;6.40;99.90;;;;;;5024170;28;20038;-87
2023/01/30 08:45:27;;;;;;;23.90;21.40;;;6.50;99.90;;;;;;4976104;28;20042;-85
2023/01/30 08:47:58;;;;;;;25.13;22.40;;;6.60;99.90;;;;;;5002930;28;20029;-86
2023/01/30 08:50:24;;;;;;;24.63;22.00;;;6.50;99.90;;;;;;4992751;28;20033;-87
2023/01/30 08:52:50;;;;;;;24.17;21.57;;;6.60;99.90;;;;;;5004181;28;20032;-86
2023/01/30 08:55:17;;;;;;;23.87;21.33;;;6.50;99.90;;;;;;4998038;28;20034;-84
2023/01/30 08:57:43;;;;;;;23.63;21.13;;;6.50;99.90;;;;;;4994069;28;20026;-85
2023/01/30 09:00:10;;;;;;;24.57;21.47;;;6.50;99.90;;;;;;5007981;28;20423;-86
2023/01/30 09:02:36;;;;;;;23.40;20.90;;;6.60;99.90;;;;;;5011916;28;20403;-87
2023/01/30 09:05:03;;;;;;;24.63;21.20;;;6.60;99.90;;;;;;4995395;28;20065;-88
2023/01/30 09:07:29;;;;;;;24.10;20.27;;;6.60;99.90;;;;;;5027957;28;20403;-85
2023/01/30 09:09:55;;;;;;;25.17;21.47;;;6.70;99.90;;;;;;4995160;28;20093;-86
2023/01/30 09:12:21;;;;;;;23.87;21.30;;;6.70;99.90;;;;;;5012343;28;20041;-88
2023/01/30 09:14:47;;;;;;;23.60;20.50;;;6.80;99.90;;;;;;5009296;28;20387;-82
2023/01/30 09:17:13;;;;;;;26.57;23.10;;;7.00;99.90;;;;;;5008559;28;20042;-88
2023/01/30 09:19:39;;;;;;;24.03;21.40;;;7.00;99.90;;;;;;5005515;28;20030;-87
2023/01/30 09:22:08;;;;;;;25.03;22.37;;;7.10;99.90;;;;;;5009439;28;20501;-84
2023/01/30 09:24:34;;;;;;;25.30;22.37;;;7.10;99.90;;;;;;4987911;28;20042;-85
2023/01/30 09:27:00;;;;;;;24.77;22.03;;;7.10;99.90;;;;;;5003961;28;20053;-85
2023/01/30 09:29:27;;;;;;;24.50;21.77;;;7.20;99.90;;;;;;5007551;28;20037;-87
2023/01/30 09:31:55;;;;;;;23.97;21.57;;;7.10;99.90;;;;;;4991983;28;20045;-86
2023/01/30 09:34:26;;;;;;;23.80;21.40;;;7.10;99.90;;;;;;4983852;28;20037;-90
2023/01/30 09:36:53;;;;;;;;;;;7.10;99.90;;;;;;5013657;28;20037;-90
2023/01/30 09:39:19;;;;;;;23.27;21.07;;;7.10;99.90;;;;;;5009856;28;19912;-90
2023/01/30 09:41:51;;;;;;;25.07;22.47;;;7.00;99.90;;;;;;4999813;28;20279;-88
2023/01/30 09:44:35;;;;;;;27.50;22.43;;;7.00;99.90;;;;;;4996183;28;20034;-89
2023/01/30 09:47:05;;;;;;;30.97;26.30;;;7.00;99.90;;;;;;4997675;28;20475;-88
2023/01/30 09:49:54;;;;;;;26.97;23.50;;;7.00;99.90;;;;;;5024282;28;20034;-86
2023/01/30 09:52:36;;;;;;;28.67;23.77;;;7.10;99.90;;;;;;5015764;28;20039;-86
2023/01/30 09:55:18;;;;;;;29.77;24.30;;;7.10;99.90;;;;;;5009230;28;20018;-86
2023/01/30 09:57:46;;;;;;;26.00;21.60;;;7.10;99.90;;;;;;5003277;28;20026;-85
2023/01/30 10:00:36;;;;;;;25.03;21.70;;;7.20;99.90;;;;;;4997398;28;20018;-84
2023/01/30 10:03:10;;;;;;;23.70;21.30;;;7.20;99.90;;;;;;5008909;28;20049;-85
2023/01/30 10:05:36;;;;;;;23.47;21.10;;;7.20;99.90;;;;;;5011323;28;20386;-86
2023/01/30 10:08:27;;;;;;;23.87;21.57;;;7.20;99.90;;;;;;5026085;28;20368;-86
2023/01/30 10:11:12;;;;;;;24.07;21.77;;;7.30;99.90;;;;;;5011366;28;20052;-86
2023/01/30 10:13:56;;;;;;;23.03;20.57;;;7.40;99.90;;;;;;4980629;28;20033;-85
2023/01/30 10:16:29;;;;;;;22.63;20.47;;;7.40;99.90;;;;;;4995127;28;20037;-86
2023/01/30 10:18:58;;;;;;;23.20;20.90;;;7.40;99.90;;;;;;5003839;28;20446;-86
2023/01/30 10:22:02;;;;;;;22.33;20.13;;;7.40;99.90;;;;;;5031177;28;20046;-85
2023/01/30 10:24:43;;;;;;;22.70;20.30;;;7.50;99.90;;;;;;5024997;28;20088;-86
2023/01/30 10:27:10;;;;;;;;;;;7.40;99.90;;;;;;5012716;28;20026;-87
2023/01/30 10:29:37;;;;;;;24.10;20.67;;;7.40;99.90;;;;;;5005330;28;19919;-88
2023/01/30 10:32:14;;;;;;;24.83;20.73;;;7.50;99.90;;;;;;5009828;28;20502;-88
2023/01/30 10:34:49;;;;;;;22.77;20.57;;;7.50;99.90;;;;;;5017613;28;20017;-87
2023/01/30 10:37:25;;;;;;;22.97;20.77;;;7.60;99.90;;;;;;5004219;28;20387;-89
2023/01/30 10:40:19;;;;;;;23.70;21.17;;;7.60;99.90;;;;;;5003455;28;20022;-90
2023/01/30 10:42:48;;;;;;;22.60;20.30;;;7.70;99.90;;;;;;5018749;28;20046;-88
2023/01/30 10:45:16;;;;;;;23.17;20.67;;;7.80;99.90;;;;;;5025723;28;20021;-90
2023/01/30 10:47:48;;;;;;;23.30;21.00;;;7.90;99.90;;;;;;5003077;28;20048;-88
2023/01/30 10:50:16;;;;;;;24.08;21.85;;;7.90;99.90;;;;;;5028381;28;20320;-85
2023/01/30 10:53:06;;;;;;;24.20;21.80;;;7.90;99.90;;;;;;5017024;28;20036;-84
2023/01/30 10:55:38;;;;;;;24.40;21.85;;;7.90;99.90;;;;;;5025526;28;20049;-85
2023/01/30 10:58:08;;;;;;;24.00;21.65;;;8.00;99.90;;;;;;5032896;28;20021;-84
2023/01/30 11:01:05;;;;;;;21.95;19.80;;;8.10;99.90;;;;;;5024181;28;20057;-84
2023/01/30 11:03:44;;;;;;;25.27;22.17;;;8.10;99.90;;;;;;5030404;28;20053;-82
2023/01/30 11:06:18;;;;;;;25.00;22.40;;;8.20;99.90;;;;;;5015873;28;20034;-84
2023/01/30 11:08:44;;;;;;;25.15;22.48;;;8.30;99.90;;;;;;5017804;28;20033;-83
2023/01/30 11:11:29;;;;;;;25.33;22.73;;;8.30;99.90;;;;;;5015408;28;20041;-83
2023/01/30 11:14:14;;;;;;;23.13;20.67;;;8.20;99.90;;;;;;5001507;28;20049;-83
2023/01/30 11:16:46;;;;;;;23.00;20.88;;;8.30;99.90;;;;;;5013384;28;20060;-84
2023/01/30 11:19:13;;;;;;;23.83;21.38;;;8.30;99.90;;;;;;5033028;28;20033;-84
2023/01/30 11:21:41;;;;;;;23.88;21.48;;;8.30;99.90;;;;;;5030193;28;20034;-84
2023/01/30 11:24:16;;;;;;;22.88;20.48;;;8.30;99.90;;;;;;5013337;28;20036;-85
2023/01/30 11:26:42;;;;;;;24.77;22.38;;;8.30;99.90;;;;;;5017205;28;20478;-84
2023/01/30 11:29:14;;;;;;;23.77;21.45;;;8.40;99.90;;;;;;5016797;28;20033;-83
2023/01/30 11:31:40;;;;;;;23.42;21.13;;;8.50;99.90;;;;;;5031615;28;20026;-83
2023/01/30 11:34:14;;;;;;;24.90;22.40;;;8.60;99.90;;;;;;5014852;28;20382;-82
2023/01/30 11:36:41;;;;;;;24.40;22.05;;;8.70;99.90;;;;;;5033931;28;20381;-83
2023/01/30 11:39:14;;;;;;;23.70;21.40;;;8.80;99.90;;;;;;5011026;28;20033;-85
2023/01/30 11:41:52;;;;;;;32.50;28.27;;;8.90;99.90;;;;;;5032776;28;20041;-85
2023/01/30 11:44:25;;;;;;;28.20;25.38;;;8.90;99.90;;;;;;5032982;28;20492;-85
2023/01/30 11:46:51;;;;;;;24.50;22.42;;;8.90;99.90;;;;;;5015150;28;20049;-83
2023/01/30 11:49:20;;;;;;;23.88;21.58;;;8.90;99.90;;;;;;5030619;28;20382;-83
2023/01/30 11:51:46;;;;;;;26.77;22.42;;;8.90;99.90;;;;;;5016344;28;20033;-82
2023/01/30 11:54:24;;;;;;;24.80;22.60;;;8.90;99.90;;;;;;4999504;28;20037;-83
2023/01/30 11:56:56;;;;;;;23.65;21.42;;;9.00;99.90;;;;;;5000376;28;20044;-82
2023/01/30 11:59:35;;;;;;;23.67;21.35;;;9.10;99.90;;;;;;5034159;28;20029;-83
2023/01/30 12:02:24;;;;;;;22.88;20.75;;;9.10;99.90;;;;;;5021694;28;20048;-83
2023/01/30 12:04:59;;;;;;;23.60;21.40;;;9.10;99.90;;;;;;5014178;28;20052;-82
2023/01/30 12:07:28;;;;;;;24.63;22.38;;;9.10;99.90;;;;;;5004634;28;20021;-82
2023/01/30 12:09:55;;;;;;;23.70;21.58;;;9.10;99.90;;;;;;5016724;28;20379;-82
2023/01/30 12:12:34;;;;;;;24.13;22.02;;;9.20;99.90;;;;;;5031149;28;20892;-82
2023/01/30 12:15:22;;;;;;;24.25;22.02;;;9.30;99.90;;;;;;5011799;28;20403;-82
2023/01/30 12:18:09;;;;;;;23.60;21.20;;;9.40;99.90;;;;;;5011875;28;20038;-82
2023/01/30 12:20:48;;;;;;;23.15;20.85;;;9.40;99.90;;;;;;5013119;28;20483;-83
2023/01/30 12:23:16;;;;;;;23.35;21.00;;;9.50;99.90;;;;;;4994982;28;20054;-83
2023/01/30 12:26:04;;;;;;;22.92;20.80;;;9.80;99.90;;;;;;5013039;28;20021;-83
2023/01/30 12:29:02;;;;;;;23.10;20.95;;;9.90;99.90;;;;;;5020480;28;20037;-82
2023/01/30 12:31:41;;;;;;;23.55;21.17;;;9.90;99.90;;;;;;5014808;28;20052;-82
2023/01/30 12:34:08;;;;;;;23.67;21.48;;;9.90;99.90;;;;;;5015301;28;20022;-82
2023/01/30 12:36:41;;;;;;;23.27;21.17;;;9.90;99.90;;;;;;5016214;28;20052;-83
2023/01/30 12:39:13;;;;;;;23.02;20.63;;;10.00;99.90;;;;;;5033108;28;20036;-83
2023/01/30 12:41:55;;;;;;;23.25;21.05;;;10.10;99.90;;;;;;5032474;28;20064;-82
2023/01/30 12:44:46;;;;;;;21.88;19.88;;;10.20;99.90;;;;;;5000412;28;20041;-83
2023/01/30 12:47:31;;;;;;;22.63;20.38;;;10.10;99.90;;;;;;5012803;28;20041;-83
2023/01/30 12:50:22;;;;;;;22.48;20.33;;;10.10;99.90;;;;;;5023345;28;20037;-84
2023/01/30 12:53:10;;;;;;;21.35;19.45;;;10.10;99.90;;;;;;5033264;28;20029;-83
2023/01/30 12:55:48;;;;;;;23.45;20.10;;;10.00;99.90;;;;;;5030926;28;20030;-84
2023/01/30 12:58:22;;;;;;;23.10;20.95;;;10.00;99.90;;;;;;4995754;28;20033;-83
2023/01/30 13:01:01;;;;;;;23.20;21.20;;;10.10;99.90;;;;;;5012023;28;20048;-83